Time;durP1;ratioP1;P1;durP2;ratioP2;P2;SDS_P1;SDS_P2;PMS_P1;PMS_P2;Temp;Humidity;BMP_temperature;BMP_pressure;BME280_temperature;BME280_humidity;BME280_pressure;Samples;Min_cycle;Max_cycle;Signal;HPM_P1;HPM_P2
2020/12/09 00:02:15;;;;;;;7.78;1.77;;;5.90;99.90;;;;;;5032623;28;20049;-87
2020/12/09 00:04:46;;;;;;;13.10;1.98;;;5.90;99.90;;;;;;5034726;28;20376;-87
2020/12/09 00:07:16;;;;;;;13.63;2.17;;;5.90;99.90;;;;;;5036824;28;20129;-89
2020/12/09 00:09:48;;;;;;;10.80;1.63;;;5.90;99.90;;;;;;5035875;28;20065;-87
2020/12/09 00:12:20;;;;;;;12.23;2.15;;;5.80;99.90;;;;;;5037920;28;20055;-87
2020/12/09 00:14:53;;;;;;;12.60;1.70;;;5.80;99.90;;;;;;5032738;28;20053;-87
2020/12/09 00:17:25;;;;;;;11.75;1.90;;;5.90;99.90;;;;;;5026306;28;20079;-87
2020/12/09 00:19:57;;;;;;;8.18;1.83;;;5.80;99.90;;;;;;5027578;28;20045;-87
2020/12/09 00:22:29;;;;;;;10.32;2.03;;;5.80;99.90;;;;;;5036115;28;20064;-87
2020/12/09 00:25:00;;;;;;;12.07;1.70;;;5.80;99.90;;;;;;5036118;28;20057;-87
2020/12/09 00:27:32;;;;;;;9.77;1.80;;;5.80;99.90;;;;;;5035278;28;20077;-87
2020/12/09 00:30:02;;;;;;;15.23;3.03;;;5.80;99.90;;;;;;5032450;28;20138;-87
2020/12/09 00:32:36;;;;;;;9.48;1.60;;;5.70;99.90;;;;;;5034392;28;20060;-87
2020/12/09 00:35:09;;;;;;;9.95;1.92;;;5.70;99.90;;;;;;5033128;28;20132;-87
2020/12/09 00:37:43;;;;;;;10.57;1.50;;;5.70;99.90;;;;;;5040530;28;20057;-88
2020/12/09 00:40:16;;;;;;;10.13;2.08;;;5.70;99.90;;;;;;5057632;28;20051;-87
2020/12/09 00:42:46;;;;;;;10.93;1.67;;;5.70;99.90;;;;;;5058920;28;20481;-87
2020/12/09 00:45:16;;;;;;;9.13;1.77;;;5.70;99.90;;;;;;5056589;28;20127;-87
2020/12/09 00:47:53;;;;;;;7.68;1.92;;;5.70;99.90;;;;;;5059669;28;20045;-87
2020/12/09 00:52:56;;;;;;;8.63;1.60;;;5.60;99.90;;;;;;5069938;28;20048;-87
2020/12/09 00:55:27;;;;;;;6.60;1.63;;;5.60;99.90;;;;;;5045308;28;20048;-87
2020/12/09 00:57:58;;;;;;;8.15;1.63;;;5.60;99.90;;;;;;5059597;28;20068;-87
2020/12/09 01:00:30;;;;;;;11.52;1.70;;;5.60;99.90;;;;;;5057734;28;20115;-87
2020/12/09 01:03:00;;;;;;;12.95;1.75;;;5.60;99.90;;;;;;5059723;28;20049;-87
2020/12/09 01:05:30;;;;;;;11.75;1.65;;;5.60;99.90;;;;;;5050502;28;20049;-87
2020/12/09 01:08:00;;;;;;;9.68;2.10;;;5.60;99.90;;;;;;5052017;28;20052;-86
2020/12/09 01:10:32;;;;;;;11.68;1.75;;;5.60;99.90;;;;;;5058461;28;20076;-87
2020/12/09 01:13:03;;;;;;;14.57;1.92;;;5.50;99.90;;;;;;5057820;28;20139;-87
2020/12/09 01:15:33;;;;;;;6.68;1.33;;;5.40;99.90;;;;;;5058436;28;20601;-87
2020/12/09 01:18:02;;;;;;;;;;;5.40;99.90;;;;;;5058149;28;20048;-87
2020/12/09 01:20:33;;;;;;;12.52;1.80;;;5.40;99.90;;;;;;5056257;28;19921;-87
2020/12/09 01:23:04;;;;;;;7.50;1.73;;;5.40;99.90;;;;;;5056489;28;20049;-87
2020/12/09 01:25:35;;;;;;;14.43;1.80;;;5.40;99.90;;;;;;5057498;28;20208;-87
2020/12/09 01:28:05;;;;;;;11.73;1.40;;;5.30;99.90;;;;;;5056516;28;20049;-87
2020/12/09 01:30:39;;;;;;;13.43;1.77;;;5.40;99.90;;;;;;5056150;28;20053;-87
2020/12/09 01:33:11;;;;;;;10.43;1.60;;;5.40;99.90;;;;;;5058863;28;20060;-87
2020/12/09 01:35:43;;;;;;;7.85;1.67;;;5.40;99.90;;;;;;5057627;28;20067;-87
2020/12/09 01:38:12;;;;;;;9.27;2.05;;;5.40;99.90;;;;;;5042693;28;20096;-87
2020/12/09 01:40:42;;;;;;;10.95;1.90;;;5.50;99.90;;;;;;5032906;28;20044;-87
2020/12/09 01:43:11;;;;;;;12.13;1.92;;;5.50;99.90;;;;;;5026565;28;20053;-87
2020/12/09 01:45:41;;;;;;;7.20;1.67;;;5.60;99.90;;;;;;5034259;28;20052;-86
2020/12/09 01:48:11;;;;;;;6.70;2.08;;;5.60;99.90;;;;;;5036791;28;20072;-87
2020/12/09 01:50:43;;;;;;;11.98;1.30;;;5.60;99.90;;;;;;5021828;28;20057;-86
2020/12/09 01:53:13;;;;;;;8.48;1.30;;;5.60;99.90;;;;;;5027997;28;20076;-87
2020/12/09 01:55:43;;;;;;;10.05;1.67;;;5.60;99.90;;;;;;5034807;28;20053;-87
2020/12/09 01:58:16;;;;;;;7.78;1.17;;;5.60;99.90;;;;;;5026119;28;20045;-87
2020/12/09 02:00:47;;;;;;;4.22;1.10;;;5.60;99.90;;;;;;5037023;28;20407;-88
2020/12/09 02:03:20;;;;;;;11.55;1.50;;;5.50;99.90;;;;;;5037652;28;20463;-88
2020/12/09 02:05:53;;;;;;;11.98;1.88;;;5.50;99.90;;;;;;5023062;28;20057;-88
2020/12/09 02:08:25;;;;;;;10.52;1.50;;;5.50;99.90;;;;;;5024562;28;20132;-88
2020/12/09 02:10:58;;;;;;;10.52;1.70;;;5.50;99.90;;;;;;5026726;28;20104;-87
2020/12/09 02:13:30;;;;;;;9.27;1.60;;;5.50;99.90;;;;;;5033981;28;20104;-87
2020/12/09 02:16:04;;;;;;;12.13;1.90;;;5.40;99.90;;;;;;5039497;28;20049;-88
2020/12/09 02:18:36;;;;;;;11.70;1.92;;;5.40;99.90;;;;;;5034879;28;20105;-88
2020/12/09 02:21:08;;;;;;;8.90;1.50;;;5.40;99.90;;;;;;5021502;28;20057;-88
2020/12/09 02:23:39;;;;;;;9.93;1.40;;;5.40;99.90;;;;;;5035692;28;20057;-88
2020/12/09 02:26:13;;;;;;;14.77;1.90;;;5.50;99.90;;;;;;5034239;28;20049;-88
2020/12/09 02:28:44;;;;;;;10.90;1.65;;;5.50;99.90;;;;;;5031012;28;20055;-87
2020/12/09 02:31:15;;;;;;;16.67;1.52;;;5.50;99.90;;;;;;5024474;28;20052;-87
2020/12/09 02:33:47;;;;;;;13.35;1.50;;;5.50;99.90;;;;;;5036961;28;20127;-87
2020/12/09 02:36:21;;;;;;;15.27;2.92;;;5.50;99.90;;;;;;5040403;28;20060;-87
2020/12/09 02:38:55;;;;;;;12.63;1.83;;;5.50;99.90;;;;;;5044171;28;20053;-87
2020/12/09 02:41:29;;;;;;;8.43;1.42;;;5.50;99.90;;;;;;5057734;28;20662;-88
2020/12/09 02:44:00;;;;;;;12.27;2.08;;;5.50;99.90;;;;;;5062052;28;20055;-88
2020/12/09 02:46:29;;;;;;;;;;;5.60;99.90;;;;;;5069280;28;20119;-88
2020/12/09 02:48:59;;;;;;;13.38;1.60;;;5.60;99.90;;;;;;5090497;28;19920;-88
2020/12/09 02:51:29;;;;;;;11.02;1.50;;;5.60;99.90;;;;;;5063740;28;20071;-87
2020/12/09 02:54:00;;;;;;;13.82;2.25;;;5.60;99.90;;;;;;5057707;28;20076;-88
2020/12/09 02:56:33;;;;;;;9.88;1.50;;;5.60;99.90;;;;;;5066221;28;20053;-88
2020/12/09 02:59:05;;;;;;;8.75;1.33;;;5.50;99.90;;;;;;5068667;28;20075;-88
2020/12/09 03:01:35;;;;;;;8.32;1.27;;;5.50;99.90;;;;;;5065332;28;20051;-88
2020/12/09 03:04:07;;;;;;;13.52;1.77;;;5.40;99.90;;;;;;5071861;28;20502;-88
2020/12/09 03:06:44;;;;;;;15.07;1.65;;;5.30;99.90;;;;;;5056491;28;20064;-88
2020/12/09 03:09:15;;;;;;;11.35;1.40;;;5.30;99.90;;;;;;5069310;28;20462;-88
2020/12/09 03:11:45;;;;;;;16.00;1.75;;;5.30;99.90;;;;;;5073657;28;20048;-88
2020/12/09 03:14:16;;;;;;;15.43;2.05;;;5.20;99.90;;;;;;5069332;28;20048;-88
2020/12/09 03:16:46;;;;;;;10.52;1.67;;;5.20;99.90;;;;;;5063695;28;20056;-88
2020/12/09 03:19:18;;;;;;;11.38;1.92;;;5.10;99.90;;;;;;5057344;28;20060;-88
2020/12/09 03:21:50;;;;;;;11.13;1.52;;;5.20;99.90;;;;;;5072388;28;20128;-87
2020/12/09 03:24:22;;;;;;;18.58;1.80;;;5.10;99.90;;;;;;5070381;28;20049;-88
2020/12/09 03:26:53;;;;;;;9.30;1.20;;;5.20;99.90;;;;;;5058131;28;20045;-88
2020/12/09 03:29:25;;;;;;;13.95;1.50;;;5.20;99.90;;;;;;5056545;28;20426;-88
2020/12/09 03:31:54;;;;;;;16.75;1.92;;;5.10;99.90;;;;;;5059132;28;20064;-88
2020/12/09 03:34:25;;;;;;;9.68;1.30;;;5.10;99.90;;;;;;5068836;28;20110;-88
2020/12/09 03:36:57;;;;;;;15.57;2.17;;;5.00;99.90;;;;;;5054107;28;20056;-89
2020/12/09 03:39:27;;;;;;;9.18;1.65;;;5.00;99.90;;;;;;5054087;28;20364;-88
2020/12/09 03:41:58;;;;;;;12.15;1.60;;;5.00;99.90;;;;;;5054785;28;20095;-88
2020/12/09 03:44:30;;;;;;;9.90;1.60;;;4.90;99.90;;;;;;5058998;28;20056;-88
2020/12/09 03:47:00;;;;;;;8.75;1.70;;;4.90;99.90;;;;;;5071302;28;20055;-88
2020/12/09 03:49:30;;;;;;;14.00;2.38;;;4.90;99.90;;;;;;5061138;28;20037;-88
2020/12/09 03:52:00;;;;;;;9.57;1.90;;;4.90;99.90;;;;;;5069609;28;20052;-88
2020/12/09 03:54:29;;;;;;;16.45;2.22;;;4.90;99.90;;;;;;5049264;28;20105;-88
2020/12/09 03:57:00;;;;;;;12.00;2.03;;;4.90;99.90;;;;;;5071027;28;20044;-88
2020/12/09 03:59:32;;;;;;;10.88;1.90;;;4.90;99.90;;;;;;5061883;28;20045;-88
2020/12/09 04:02:03;;;;;;;10.82;1.58;;;5.00;99.90;;;;;;5064301;28;20135;-88
2020/12/09 04:04:36;;;;;;;12.50;2.10;;;5.00;99.90;;;;;;5061934;28;20314;-88
2020/12/09 04:07:09;;;;;;;15.32;2.13;;;5.00;99.90;;;;;;5058100;28;20106;-87
2020/12/09 04:09:43;;;;;;;13.30;2.78;;;5.00;99.90;;;;;;5067764;28;20049;-88
2020/12/09 04:12:13;;;;;;;13.30;1.88;;;5.10;99.90;;;;;;5076027;28;20060;-88
2020/12/09 04:14:43;;;;;;;12.40;1.95;;;5.10;99.90;;;;;;5071332;28;20048;-88
2020/12/09 04:17:13;;;;;;;10.32;1.52;;;5.20;99.90;;;;;;5073317;28;20049;-88
2020/12/09 04:19:46;;;;;;;8.27;1.83;;;5.10;99.90;;;;;;5070198;28;20044;-88
2020/12/09 04:22:16;;;;;;;13.32;1.65;;;5.10;99.90;;;;;;5062348;28;20200;-88
2020/12/09 04:24:48;;;;;;;9.68;2.00;;;5.10;99.90;;;;;;5075252;28;20068;-88
2020/12/09 04:27:20;;;;;;;13.02;1.80;;;5.00;99.90;;;;;;5062204;28;20076;-88
2020/12/09 04:29:53;;;;;;;14.32;2.40;;;4.90;99.90;;;;;;5071550;28;20053;-88
2020/12/09 04:32:23;;;;;;;13.13;1.80;;;4.80;99.90;;;;;;5070476;28;20056;-88
2020/12/09 04:34:58;;;;;;;9.88;1.80;;;4.70;99.90;;;;;;5075249;28;20048;-88
2020/12/09 04:37:28;;;;;;;10.60;1.65;;;4.70;99.90;;;;;;5072423;28;20053;-88
2020/12/09 04:39:59;;;;;;;11.73;2.08;;;4.60;99.90;;;;;;5059357;28;20121;-88
2020/12/09 04:42:29;;;;;;;16.13;1.85;;;4.60;99.90;;;;;;5059505;28;20061;-88
2020/12/09 04:45:00;;;;;;;12.77;1.73;;;4.60;99.90;;;;;;5070330;28;20049;-88
2020/12/09 04:47:43;;;;;;;11.10;2.00;;;4.50;99.90;;;;;;5070745;28;20102;-88
2020/12/09 04:50:15;;;;;;;12.70;2.37;;;4.40;99.90;;;;;;5070500;28;20048;-88
2020/12/09 04:53:03;;;;;;;10.82;1.83;;;4.40;99.90;;;;;;5061121;28;20052;-88
2020/12/09 04:55:33;;;;;;;10.02;1.77;;;4.40;99.90;;;;;;5063463;28;20046;-89
2020/12/09 04:58:25;;;;;;;12.18;1.92;;;4.30;99.90;;;;;;5061685;28;20432;-88
2020/12/09 05:01:10;;;;;;;12.32;2.33;;;4.30;99.90;;;;;;5057326;28;20106;-88
2020/12/09 05:03:51;;;;;;;15.50;1.80;;;4.30;99.90;;;;;;5039869;28;20067;-88
2020/12/09 05:06:22;;;;;;;;;;;4.30;99.90;;;;;;5074484;28;20059;-89
2020/12/09 05:08:56;;;;;;;13.95;1.92;;;4.30;99.90;;;;;;5060043;28;19920;-88
2020/12/09 05:11:30;;;;;;;12.32;1.65;;;4.30;99.90;;;;;;5083631;28;20061;-89
2020/12/09 05:13:59;;;;;;;12.25;2.00;;;4.30;99.90;;;;;;5055144;28;20072;-88
2020/12/09 05:16:33;;;;;;;10.30;2.43;;;4.40;99.90;;;;;;5059908;28;20045;-89
2020/12/09 05:19:08;;;;;;;11.10;2.22;;;4.40;99.90;;;;;;5074851;28;20059;-88
2020/12/09 05:21:47;;;;;;;20.73;2.15;;;4.50;99.90;;;;;;5072782;28;20519;-88
2020/12/09 05:24:20;;;;;;;14.73;2.30;;;4.50;99.90;;;;;;5074605;28;20064;-89
2020/12/09 05:26:52;;;;;;;13.18;1.83;;;4.60;99.90;;;;;;5059070;28;20059;-88
2020/12/09 05:29:27;;;;;;;12.32;1.90;;;4.70;99.90;;;;;;5059567;28;20080;-88
2020/12/09 05:32:03;;;;;;;11.18;1.70;;;4.70;99.90;;;;;;5063579;28;20394;-88
2020/12/09 05:34:35;;;;;;;16.05;2.53;;;4.80;99.90;;;;;;5060773;28;20049;-88
2020/12/09 05:37:10;;;;;;;14.90;2.55;;;4.80;99.90;;;;;;5071695;28;20506;-88
2020/12/09 05:40:00;;;;;;;12.60;1.60;;;4.90;99.90;;;;;;5059106;28;20045;-89
2020/12/09 05:42:30;;;;;;;14.00;1.80;;;4.90;99.90;;;;;;5075054;28;20060;-88
2020/12/09 05:45:00;;;;;;;9.93;1.45;;;4.90;99.90;;;;;;5075063;28;20044;-89
2020/12/09 05:47:30;;;;;;;17.70;1.92;;;4.90;99.90;;;;;;5072527;28;20135;-88
2020/12/09 05:50:00;;;;;;;12.63;1.77;;;4.90;99.90;;;;;;5065617;28;20056;-88
2020/12/09 05:52:31;;;;;;;18.33;2.50;;;5.00;99.90;;;;;;5066331;28;20040;-88
2020/12/09 05:55:02;;;;;;;14.82;2.45;;;5.00;99.90;;;;;;5058841;28;20057;-87
2020/12/09 05:57:34;;;;;;;12.35;1.77;;;5.10;99.90;;;;;;5073577;28;20157;-88
2020/12/09 06:00:14;;;;;;;20.00;2.53;;;5.20;99.90;;;;;;5071756;28;20398;-88
2020/12/09 06:02:43;;;;;;;15.95;2.20;;;5.20;99.90;;;;;;5068214;28;20450;-88
2020/12/09 06:05:15;;;;;;;10.27;1.60;;;5.30;99.90;;;;;;5064138;28;20128;-88
2020/12/09 06:07:48;;;;;;;13.10;1.77;;;5.30;99.90;;;;;;5057513;28;20083;-88
2020/12/09 06:10:20;;;;;;;12.55;2.75;;;5.30;99.90;;;;;;5059448;28;20044;-88
2020/12/09 06:13:01;;;;;;;18.38;2.00;;;5.30;99.90;;;;;;5072714;28;20067;-88
2020/12/09 06:15:34;;;;;;;10.27;1.58;;;5.20;99.90;;;;;;5056219;28;20504;-87
2020/12/09 06:18:15;;;;;;;15.90;2.08;;;5.20;99.90;;;;;;5061571;28;20059;-88
2020/12/09 06:20:46;;;;;;;11.38;2.03;;;5.20;99.90;;;;;;5066546;28;20048;-88
2020/12/09 06:23:20;;;;;;;8.07;2.40;;;5.20;99.90;;;;;;5061779;28;20049;-88
2020/12/09 06:25:50;;;;;;;15.05;1.95;;;5.20;99.90;;;;;;5050435;28;20128;-88
2020/12/09 06:28:24;;;;;;;10.70;2.38;;;5.20;99.90;;;;;;5069594;28;20082;-88
2020/12/09 06:30:58;;;;;;;13.98;2.20;;;5.10;99.90;;;;;;5056976;28;20048;-88
2020/12/09 06:33:33;;;;;;;18.50;2.28;;;5.10;99.90;;;;;;5069594;28;20478;-87
2020/12/09 06:36:28;;;;;;;16.17;2.28;;;5.00;99.90;;;;;;5058233;28;20132;-88
2020/12/09 06:39:07;;;;;;;10.23;1.52;;;5.00;99.90;;;;;;5066818;28;20055;-88
2020/12/09 06:41:37;;;;;;;10.57;1.80;;;4.90;99.90;;;;;;5058943;28;20052;-88
2020/12/09 06:44:13;;;;;;;18.30;1.80;;;5.00;99.90;;;;;;5061357;28;20059;-88
2020/12/09 06:46:50;;;;;;;16.00;2.13;;;4.90;99.90;;;;;;5067715;28;20110;-88
2020/12/09 06:49:28;;;;;;;16.17;2.17;;;4.90;99.90;;;;;;5070238;28;20041;-87
2020/12/09 06:52:03;;;;;;;11.20;1.95;;;4.90;99.90;;;;;;5053686;28;20044;-88
2020/12/09 06:54:42;;;;;;;14.07;2.35;;;4.90;99.90;;;;;;5054852;28;20422;-88
2020/12/09 06:57:22;;;;;;;9.68;1.65;;;4.80;99.90;;;;;;5054672;28;20459;-88
2020/12/09 07:00:14;;;;;;;22.55;2.78;;;4.80;99.90;;;;;;5060834;28;20052;-88
2020/12/09 07:02:45;;;;;;;10.13;2.00;;;4.70;99.90;;;;;;5065343;28;20048;-87
2020/12/09 07:05:19;;;;;;;12.27;2.35;;;4.70;99.90;;;;;;5060148;28;20057;-88
2020/12/09 07:07:59;;;;;;;13.65;2.17;;;4.60;99.90;;;;;;5057818;28;20048;-88
2020/12/09 07:10:28;;;;;;;15.60;3.53;;;4.50;99.90;;;;;;5058942;28;20136;-88
2020/12/09 07:13:05;;;;;;;16.00;3.50;;;4.50;99.90;;;;;;5054980;28;20053;-88
2020/12/09 07:15:36;;;;;;;14.35;2.08;;;4.50;99.90;;;;;;5054659;28;20051;-87
2020/12/09 07:18:07;;;;;;;16.75;1.98;;;4.50;99.90;;;;;;5057663;28;20374;-88
2020/12/09 07:20:38;;;;;;;10.48;2.15;;;4.50;99.90;;;;;;5066305;28;20471;-88
2020/12/09 07:23:10;;;;;;;19.10;2.95;;;4.50;99.90;;;;;;5069145;28;20128;-87
2020/12/09 07:25:41;;;;;;;10.73;1.92;;;4.50;99.90;;;;;;5064501;28;20047;-88
2020/12/09 07:28:11;;;;;;;27.02;3.55;;;4.50;99.90;;;;;;5055727;28;20045;-87
2020/12/09 07:30:38;;;;;;;13.60;1.80;;;4.50;99.90;;;;;;5052229;28;20375;-87
2020/12/09 07:33:06;;;;;;;15.55;2.47;;;4.50;99.90;;;;;;5057566;28;20060;-88
2020/12/09 07:35:36;;;;;;;14.27;1.73;;;4.50;99.90;;;;;;5068419;28;20052;-88
2020/12/09 07:38:07;;;;;;;24.45;2.78;;;4.50;99.90;;;;;;5060550;28;20499;-87
2020/12/09 07:40:37;;;;;;;10.65;2.08;;;4.60;99.90;;;;;;5055255;28;20071;-87
2020/12/09 07:43:12;;;;;;;14.68;2.60;;;4.60;99.90;;;;;;5057128;28;20074;-87
2020/12/09 07:45:44;;;;;;;14.20;2.22;;;4.60;99.90;;;;;;5071945;28;20481;-88
2020/12/09 07:48:20;;;;;;;13.45;1.95;;;4.60;99.90;;;;;;5068121;28;20058;-87
2020/12/09 07:50:53;;;;;;;15.88;2.03;;;4.60;99.90;;;;;;5053864;28;20072;-88
2020/12/09 07:53:23;;;;;;;14.38;2.05;;;4.60;99.90;;;;;;5055336;28;20360;-87
2020/12/09 07:55:53;;;;;;;17.40;2.10;;;4.60;99.90;;;;;;5057873;28;20056;-87
2020/12/09 07:58:23;;;;;;;11.73;2.55;;;4.60;99.90;;;;;;5067735;28;20052;-87
2020/12/09 08:00:55;;;;;;;8.88;2.10;;;4.60;99.90;;;;;;5066863;28;20061;-87
2020/12/09 08:03:25;;;;;;;15.90;2.30;;;4.60;99.90;;;;;;5054350;28;20076;-86
2020/12/09 08:05:57;;;;;;;16.80;3.08;;;4.60;99.90;;;;;;5056014;28;20050;-87
2020/12/09 08:08:27;;;;;;;12.48;2.22;;;4.60;99.90;;;;;;5062257;28;20056;-87
2020/12/09 08:11:06;;;;;;;12.30;2.13;;;4.70;99.90;;;;;;5071252;28;20041;-87
2020/12/09 08:13:35;;;;;;;16.05;2.25;;;4.70;99.90;;;;;;5064881;28;20049;-87
2020/12/09 08:16:09;;;;;;;13.35;1.98;;;4.70;99.90;;;;;;5055717;28;20041;-87
2020/12/09 08:18:38;;;;;;;12.32;2.95;;;4.80;99.90;;;;;;5055484;28;20064;-86
2020/12/09 08:21:11;;;;;;;15.88;2.65;;;4.80;99.90;;;;;;5068894;28;20109;-87
2020/12/09 08:23:46;;;;;;;17.63;2.42;;;4.90;99.90;;;;;;5072060;28;20469;-87
2020/12/09 08:26:32;;;;;;;14.57;2.50;;;4.90;99.90;;;;;;5066220;28;20044;-86
2020/12/09 08:29:02;;;;;;;13.23;1.95;;;4.90;99.90;;;;;;5061596;28;20052;-86
2020/12/09 08:31:34;;;;;;;11.75;1.85;;;4.90;99.90;;;;;;5054493;28;20053;-87
2020/12/09 08:34:13;;;;;;;13.00;2.33;;;5.00;99.90;;;;;;5055945;28;20098;-87
2020/12/09 08:36:42;;;;;;;11.65;1.77;;;5.00;99.90;;;;;;5069727;28;20052;-86
2020/12/09 08:39:15;;;;;;;20.13;2.60;;;5.10;99.90;;;;;;5058083;28;20057;-86
2020/12/09 08:41:48;;;;;;;18.65;3.15;;;5.10;99.90;;;;;;5055848;28;20106;-86
2020/12/09 08:44:18;;;;;;;12.32;1.80;;;5.20;99.90;;;;;;5060917;28;20506;-86
2020/12/09 08:47:02;;;;;;;20.15;3.10;;;5.20;99.90;;;;;;5067207;28;20055;-87
2020/12/09 08:49:33;;;;;;;9.32;1.98;;;5.30;99.90;;;;;;5068161;28;20094;-86
2020/12/09 08:52:02;;;;;;;13.98;2.53;;;5.40;99.90;;;;;;5061660;28;20473;-87
2020/12/09 08:54:32;;;;;;;11.57;2.40;;;5.40;99.90;;;;;;5053844;28;20522;-87
2020/12/09 08:57:05;;;;;;;14.77;2.50;;;5.40;99.90;;;;;;5060463;28;20052;-86
2020/12/09 08:59:35;;;;;;;17.73;2.63;;;5.40;99.90;;;;;;5073319;28;20048;-87
2020/12/09 09:02:04;;;;;;;13.45;2.03;;;5.40;99.90;;;;;;5061855;28;20057;-87
2020/12/09 09:04:36;;;;;;;13.82;2.33;;;5.40;99.90;;;;;;5059149;28;20045;-87
2020/12/09 09:07:06;;;;;;;11.60;1.65;;;5.40;99.90;;;;;;5058778;28;20116;-86
2020/12/09 09:09:36;;;;;;;12.45;2.30;;;5.40;99.90;;;;;;5072449;28;20127;-87
2020/12/09 09:12:05;;;;;;;8.65;1.52;;;5.40;99.90;;;;;;5071132;28;20132;-87
2020/12/09 09:14:35;;;;;;;13.20;1.70;;;5.40;99.90;;;;;;5061192;28;20048;-86
2020/12/09 09:17:05;;;;;;;17.70;3.13;;;5.40;99.90;;;;;;5059650;28;20118;-87
2020/12/09 09:19:35;;;;;;;14.20;2.88;;;5.40;99.90;;;;;;5058403;28;20075;-87
2020/12/09 09:22:05;;;;;;;17.58;3.45;;;5.40;99.90;;;;;;5073709;28;20055;-87
2020/12/09 09:24:36;;;;;;;12.30;3.15;;;5.50;99.90;;;;;;5071645;28;20059;-87
2020/12/09 09:27:13;;;;;;;11.80;3.28;;;5.40;99.90;;;;;;5059629;28;20049;-87
2020/12/09 09:29:46;;;;;;;17.17;3.35;;;5.50;99.90;;;;;;5059885;28;20060;-87
2020/12/09 09:32:17;;;;;;;11.25;2.50;;;5.50;99.90;;;;;;5063692;28;20064;-86
2020/12/09 09:34:48;;;;;;;15.32;2.72;;;5.50;99.90;;;;;;5070965;28;20119;-87
2020/12/09 09:37:18;;;;;;;14.30;2.75;;;5.60;99.90;;;;;;5072093;28;20071;-86
2020/12/09 09:39:54;;;;;;;14.32;2.50;;;5.60;99.90;;;;;;5036888;28;20057;-86
2020/12/09 09:42:23;;;;;;;15.55;2.47;;;5.70;99.90;;;;;;5040007;28;20159;-87
2020/12/09 09:44:54;;;;;;;16.15;2.35;;;5.70;99.90;;;;;;5038471;28;20107;-87
2020/12/09 09:47:23;;;;;;;9.85;2.10;;;5.70;99.90;;;;;;5035041;28;20479;-87
2020/12/09 09:49:54;;;;;;;14.80;2.55;;;5.80;99.90;;;;;;5036219;28;20053;-86
2020/12/09 09:52:22;;;;;;;;;;;5.90;99.90;;;;;;5028021;28;20140;-86
2020/12/09 09:54:51;;;;;;;15.63;2.53;;;5.90;99.90;;;;;;5037766;28;19921;-86
2020/12/09 09:57:21;;;;;;;17.25;2.92;;;6.00;99.90;;;;;;5037898;28;20064;-86
2020/12/09 09:59:53;;;;;;;14.63;2.67;;;6.10;99.90;;;;;;5034474;28;20057;-87
2020/12/09 10:02:23;;;;;;;17.35;2.95;;;6.20;99.90;;;;;;5036260;28;20081;-86
2020/12/09 10:04:53;;;;;;;13.57;2.38;;;6.20;99.90;;;;;;5036054;28;20132;-87
2020/12/09 10:07:26;;;;;;;14.50;2.20;;;6.30;99.90;;;;;;5036917;28;20430;-86
2020/12/09 10:10:01;;;;;;;11.55;2.90;;;6.40;99.90;;;;;;5034811;28;20042;-86
2020/12/09 10:12:31;;;;;;;15.43;4.10;;;6.50;99.90;;;;;;5038655;28;20084;-86
2020/12/09 10:15:00;;;;;;;15.25;3.38;;;6.60;99.90;;;;;;5037475;28;20347;-87
2020/12/09 10:17:30;;;;;;;11.68;2.65;;;6.60;99.90;;;;;;5035869;28;20053;-87
2020/12/09 10:19:58;;;;;;;;;;;6.70;99.90;;;;;;5037333;28;20141;-87
2020/12/09 10:22:27;;;;;;;23.63;9.45;;;6.80;99.90;;;;;;5035541;28;20560;-86
2020/12/09 10:24:59;;;;;;;27.98;12.70;;;6.90;99.90;;;;;;5036836;28;20057;-86
2020/12/09 10:27:31;;;;;;;32.10;16.70;;;6.90;99.90;;;;;;5037037;28;20056;-86
2020/12/09 10:30:01;;;;;;;23.15;16.42;;;7.00;99.90;;;;;;5046512;28;20056;-86
2020/12/09 10:32:30;;;;;;;;;;;7.10;99.90;;;;;;5036627;28;20112;-86
2020/12/09 10:34:59;;;;;;;16.98;5.70;;;7.20;99.90;;;;;;5035876;28;20331;-86
2020/12/09 10:37:29;;;;;;;12.32;3.45;;;7.20;99.90;;;;;;5030990;28;20046;-86
2020/12/09 10:39:59;;;;;;;10.88;2.53;;;7.30;99.90;;;;;;5032815;28;20051;-86
2020/12/09 10:42:28;;;;;;;13.23;2.67;;;7.40;99.90;;;;;;5031578;28;20084;-86
2020/12/09 10:44:56;;;;;;;17.33;3.50;;;7.50;99.90;;;;;;5015739;28;20049;-86
2020/12/09 10:47:27;;;;;;;13.73;3.08;;;7.50;99.90;;;;;;5018858;28;20060;-86
2020/12/09 10:49:58;;;;;;;19.85;3.35;;;7.60;99.90;;;;;;5025186;28;20038;-86
2020/12/09 10:52:29;;;;;;;15.82;2.90;;;7.70;99.90;;;;;;5012662;28;20057;-86
2020/12/09 10:55:00;;;;;;;11.57;2.42;;;7.80;99.90;;;;;;5033144;28;20059;-87
2020/12/09 10:57:32;;;;;;;15.73;3.35;;;7.80;99.90;;;;;;5022566;28;20054;-86
2020/12/09 11:00:01;;;;;;;15.60;4.43;;;7.90;99.90;;;;;;5019774;28;20049;-87
2020/12/09 11:02:29;;;;;;;13.75;3.08;;;8.00;99.90;;;;;;5032116;28;20475;-86
2020/12/09 11:04:59;;;;;;;9.60;2.38;;;8.00;99.90;;;;;;5034159;28;20068;-87
2020/12/09 11:07:30;;;;;;;14.10;2.90;;;8.10;99.90;;;;;;5035303;28;20064;-86
2020/12/09 11:09:59;;;;;;;11.85;2.80;;;8.20;99.90;;;;;;5051395;28;20091;-87
2020/12/09 11:12:29;;;;;;;10.52;3.17;;;8.20;99.90;;;;;;5021550;28;20392;-87
2020/12/09 11:15:02;;;;;;;16.35;3.55;;;8.20;99.90;;;;;;5036492;28;20048;-87
2020/12/09 11:17:33;;;;;;;23.75;9.65;;;8.30;99.90;;;;;;5022182;28;20053;-87
2020/12/09 11:20:04;;;;;;;17.02;7.32;;;8.30;99.90;;;;;;5020926;28;20042;-87
2020/12/09 11:22:34;;;;;;;14.88;7.10;;;8.40;99.90;;;;;;5025346;28;20053;-86
2020/12/09 11:25:06;;;;;;;20.15;7.95;;;8.30;99.90;;;;;;5036556;28;20075;-87
2020/12/09 11:27:37;;;;;;;15.02;7.93;;;8.30;99.90;;;;;;5034842;28;20057;-86
2020/12/09 11:30:09;;;;;;;19.33;8.50;;;8.30;99.90;;;;;;5019767;28;20073;-87
2020/12/09 11:32:38;;;;;;;18.55;9.48;;;8.20;99.90;;;;;;5022722;28;20530;-86
2020/12/09 11:35:09;;;;;;;17.40;9.02;;;8.20;99.90;;;;;;5030529;28;20052;-86
2020/12/09 11:37:38;;;;;;;20.05;9.98;;;8.20;99.90;;;;;;5037235;28;20482;-86
2020/12/09 11:40:10;;;;;;;23.08;9.85;;;8.20;99.90;;;;;;5055770;28;20107;-87
2020/12/09 11:42:41;;;;;;;14.95;8.93;;;8.20;99.90;;;;;;5039510;28;20127;-86
2020/12/09 11:45:10;;;;;;;18.40;9.90;;;8.30;99.90;;;;;;5052572;28;20049;-86
2020/12/09 11:47:38;;;;;;;22.65;10.32;;;8.30;99.90;;;;;;5054803;28;20053;-86
2020/12/09 11:50:07;;;;;;;;;;;8.40;99.90;;;;;;5051608;28;20625;-86
2020/12/09 11:52:36;;;;;;;20.67;9.97;;;8.40;99.90;;;;;;5039732;28;20014;-87
2020/12/09 11:55:07;;;;;;;20.52;9.25;;;8.40;99.90;;;;;;5041513;28;20541;-86
2020/12/09 11:57:38;;;;;;;21.10;9.65;;;8.40;99.90;;;;;;5038640;28;20064;-86
2020/12/09 12:00:08;;;;;;;19.52;9.85;;;8.50;99.90;;;;;;5056154;28;20063;-86
2020/12/09 12:02:38;;;;;;;29.25;10.88;;;8.60;99.90;;;;;;5052072;28;20055;-87
2020/12/09 12:05:51;;;;;;;19.98;11.40;;;8.60;99.90;;;;;;5049812;28;20076;-87
2020/12/09 12:08:37;;;;;;;30.77;21.48;;;8.60;99.90;;;;;;5028511;28;20530;-87
2020/12/09 12:11:05;;;;;;;22.27;12.52;;;8.70;99.90;;;;;;5042397;28;20055;-87
2020/12/09 12:13:33;;;;;;;26.20;15.55;;;8.70;99.90;;;;;;5054406;28;20088;-87
2020/12/09 12:16:02;;;;;;;65.43;40.65;;;8.80;99.90;;;;;;5054143;28;20133;-87
2020/12/09 12:18:32;;;;;;;72.10;47.35;;;8.80;99.90;;;;;;5037759;28;20055;-87
2020/12/09 12:21:04;;;;;;;89.97;59.78;;;8.80;99.90;;;;;;5040115;28;20048;-87
2020/12/09 12:23:33;;;;;;;33.78;20.95;;;8.90;99.90;;;;;;5038492;28;20049;-87
2020/12/09 12:26:02;;;;;;;27.55;19.27;;;8.90;99.90;;;;;;5045066;28;20406;-87
2020/12/09 12:28:31;;;;;;;26.05;19.17;;;9.00;99.90;;;;;;5050087;28;20069;-87
2020/12/09 12:31:01;;;;;;;27.73;15.95;;;9.00;99.90;;;;;;5054981;28;20124;-87
2020/12/09 12:33:30;;;;;;;21.23;14.25;;;9.00;99.90;;;;;;5039587;28;20426;-87
2020/12/09 12:36:00;;;;;;;37.00;19.40;;;9.10;99.90;;;;;;5059282;28;20044;-87
2020/12/09 12:38:29;;;;;;;44.35;22.90;;;9.10;99.90;;;;;;5063523;28;20128;-85
2020/12/09 12:40:58;;;;;;;36.25;21.80;;;9.10;99.90;;;;;;5065920;28;20041;-87
2020/12/09 12:43:27;;;;;;;33.78;19.75;;;9.10;99.90;;;;;;5059518;28;20051;-87
2020/12/09 12:45:55;;;;;;;35.50;21.63;;;9.10;99.90;;;;;;5059702;28;20109;-87
2020/12/09 12:48:25;;;;;;;26.77;18.50;;;9.10;99.90;;;;;;5074808;28;20119;-87
2020/12/09 12:50:56;;;;;;;39.28;24.55;;;9.10;99.90;;;;;;5066758;28;20048;-87
2020/12/09 12:53:24;;;;;;;34.33;21.55;;;9.10;99.90;;;;;;5059679;28;20080;-87
2020/12/09 12:55:53;;;;;;;28.50;19.88;;;9.10;99.90;;;;;;5058380;28;20381;-88
2020/12/09 12:58:23;;;;;;;41.20;22.98;;;9.10;99.90;;;;;;5062311;28;20052;-87
2020/12/09 13:00:52;;;;;;;20.27;14.50;;;9.10;99.90;;;;;;5069254;28;20049;-87
2020/12/09 13:03:21;;;;;;;35.67;24.38;;;9.20;99.90;;;;;;5072452;28;20052;-87
2020/12/09 13:05:49;;;;;;;24.88;16.15;;;9.20;99.90;;;;;;5058839;28;20052;-87
2020/12/09 13:08:20;;;;;;;31.65;20.50;;;9.20;99.90;;;;;;5057423;28;20049;-87
2020/12/09 13:10:49;;;;;;;31.63;16.10;;;9.20;99.90;;;;;;5063547;28;21140;-87
2020/12/09 13:13:19;;;;;;;41.35;30.90;;;9.20;99.90;;;;;;5071849;28;20063;-87
2020/12/09 13:15:50;;;;;;;42.67;27.42;;;9.20;99.90;;;;;;5073507;28;20139;-86